Time;durP1;ratioP1;P1;durP2;ratioP2;P2;SDS_P1;SDS_P2;PMS_P1;PMS_P2;Temp;Humidity;BMP_temperature;BMP_pressure;BME280_temperature;BME280_humidity;BME280_pressure;Samples;Min_cycle;Max_cycle;Signal;HPM_P1;HPM_P2
2024/03/25 00:02:48;;;;;;;3.00;1.83;;;;;;;;;;4955386;28;20051;-59
2024/03/25 00:05:34;;;;;;;3.75;2.00;;;;;;;;;;4954280;28;20595;-60
2024/03/25 00:08:27;;;;;;;6.10;2.22;;;;;;;;;;4942959;28;20804;-60
2024/03/25 00:11:13;;;;;;;3.90;2.15;;;;;;;;;;4954303;28;20928;-60
2024/03/25 00:14:06;;;;;;;5.80;2.45;;;;;;;;;;4943229;28;20063;-60
2024/03/25 00:16:53;;;;;;;5.60;2.35;;;;;;;;;;4941170;28;20055;-60
2024/03/25 00:19:38;;;;;;;6.32;2.50;;;;;;;;;;4953280;28;20106;-60
2024/03/25 00:22:11;;;;;;;6.13;2.20;;;;;;;;;;4939057;28;20062;-60
2024/03/25 00:24:44;;;;;;;7.35;2.47;;;;;;;;;;4940941;28;20720;-60
2024/03/25 00:27:10;;;;;;;8.45;2.22;;;;;;;;;;4939603;28;20177;-59
2024/03/25 00:29:37;;;;;;;4.90;2.58;;;;;;;;;;4939996;28;20058;-60
2024/03/25 00:32:10;;;;;;;6.35;2.92;;;;;;;;;;4943629;28;20054;-48
2024/03/25 00:34:36;;;;;;;9.98;2.80;;;;;;;;;;4935275;28;20058;-60
2024/03/25 00:37:29;;;;;;;7.63;3.03;;;;;;;;;;4938416;28;20062;-60
2024/03/25 00:40:16;;;;;;;8.63;3.08;;;;;;;;;;4938249;28;20059;-60
2024/03/25 00:43:08;;;;;;;6.70;3.20;;;;;;;;;;4941387;28;20066;-61
2024/03/25 00:45:54;;;;;;;12.20;3.30;;;;;;;;;;4939417;28;20067;-60
2024/03/25 00:48:47;;;;;;;12.07;3.60;;;;;;;;;;4939782;28;20058;-60
2024/03/25 00:51:33;;;;;;;12.48;4.13;;;;;;;;;;4940622;28;20433;-64
2024/03/25 00:54:27;;;;;;;9.35;3.90;;;;;;;;;;4937807;28;20058;-64
2024/03/25 00:57:12;;;;;;;14.63;4.22;;;;;;;;;;4939283;28;20055;-64
2024/03/25 01:00:06;;;;;;;9.70;4.20;;;;;;;;;;4941169;28;20512;-60
2024/03/25 01:02:52;;;;;;;10.68;3.70;;;;;;;;;;4939301;28;20059;-60
2024/03/25 01:05:44;;;;;;;15.43;4.88;;;;;;;;;;4938595;28;20457;-60
2024/03/25 01:08:30;;;;;;;14.45;4.90;;;;;;;;;;4952502;28;20632;-60
2024/03/25 01:11:23;;;;;;;18.90;4.47;;;;;;;;;;4938780;28;20081;-60
2024/03/25 01:14:09;;;;;;;10.82;4.47;;;;;;;;;;4934406;28;20334;-60
2024/03/25 01:17:02;;;;;;;13.43;4.68;;;;;;;;;;4940465;28;20512;-61
2024/03/25 01:19:58;;;;;;;13.70;4.10;;;;;;;;;;4941602;28;20506;-60
2024/03/25 01:22:57;;;;;;;17.23;4.65;;;;;;;;;;4939707;28;20086;-61
2024/03/25 01:25:43;;;;;;;14.38;4.57;;;;;;;;;;4952397;28;20238;-60
2024/03/25 01:28:36;;;;;;;17.33;4.35;;;;;;;;;;4940582;28;20066;-60
2024/03/25 01:31:23;;;;;;;11.80;4.68;;;;;;;;;;4935569;28;20059;-60
2024/03/25 01:34:15;;;;;;;14.68;4.90;;;;;;;;;;4932560;28;20062;-60
2024/03/25 01:37:02;;;;;;;17.52;6.00;;;;;;;;;;4936002;28;20070;-60
2024/03/25 01:39:54;;;;;;;15.95;4.70;;;;;;;;;;4939335;28;20127;-60
2024/03/25 01:42:57;;;;;;;13.65;5.05;;;;;;;;;;4938146;28;20067;-59
2024/03/25 01:45:49;;;;;;;11.07;4.20;;;;;;;;;;4937642;28;20066;-60
2024/03/25 01:48:36;;;;;;;12.30;4.43;;;;;;;;;;4939850;28;20058;-49
2024/03/25 01:51:28;;;;;;;14.80;4.82;;;;;;;;;;4954833;28;20063;-52
2024/03/25 01:54:16;;;;;;;14.95;4.43;;;;;;;;;;4934930;28;20063;-46
2024/03/25 01:57:08;;;;;;;11.07;3.72;;;;;;;;;;4940549;28;22285;-60
2024/03/25 01:59:54;;;;;;;11.48;3.90;;;;;;;;;;4938675;28;20632;-59
2024/03/25 02:02:48;;;;;;;14.55;4.40;;;;;;;;;;4935328;28;20062;-61
2024/03/25 02:05:35;;;;;;;19.70;4.70;;;;;;;;;;4936304;28;20046;-59
2024/03/25 02:08:27;;;;;;;8.68;3.70;;;;;;;;;;4935696;28;20539;-60
2024/03/25 02:11:14;;;;;;;12.30;4.30;;;;;;;;;;4936934;28;20536;-60
2024/03/25 02:14:07;;;;;;;12.63;3.92;;;;;;;;;;4941720;28;20129;-60
2024/03/25 02:16:54;;;;;;;14.02;4.28;;;;;;;;;;4955274;28;20058;-62
2024/03/25 02:19:53;;;;;;;10.73;4.60;;;;;;;;;;4940307;28;20066;-62
2024/03/25 02:22:39;;;;;;;9.73;4.85;;;;;;;;;;4938764;28;20059;-62
2024/03/25 02:25:33;;;;;;;18.08;4.18;;;;;;;;;;4937679;28;20058;-49
2024/03/25 02:28:19;;;;;;;12.40;4.25;;;;;;;;;;4947144;28;20528;-60
2024/03/25 02:31:12;;;;;;;13.02;4.50;;;;;;;;;;4941563;28;20424;-60
2024/03/25 02:33:58;;;;;;;11.95;4.57;;;;;;;;;;4937898;28;20495;-59
2024/03/25 02:36:52;;;;;;;13.07;4.43;;;;;;;;;;4942138;28;20402;-60
2024/03/25 02:39:38;;;;;;;12.73;4.20;;;;;;;;;;4942264;28;20125;-60
2024/03/25 02:42:30;;;;;;;10.80;4.28;;;;;;;;;;4939807;28;20319;-60
2024/03/25 02:45:16;;;;;;;10.25;4.30;;;;;;;;;;4942594;28;20059;-60
2024/03/25 02:48:09;;;;;;;10.55;4.05;;;;;;;;;;4939795;28;20082;-59
2024/03/25 02:50:55;;;;;;;11.45;3.90;;;;;;;;;;4938221;28;20066;-60
2024/03/25 02:53:48;;;;;;;9.00;4.03;;;;;;;;;;4940417;28;20055;-61
2024/03/25 02:56:35;;;;;;;10.75;4.15;;;;;;;;;;4942255;28;20452;-50
2024/03/25 02:59:27;;;;;;;12.77;4.15;;;;;;;;;;4940040;28;20129;-52
2024/03/25 03:02:20;;;;;;;8.00;3.90;;;;;;;;;;4942288;28;20066;-50
2024/03/25 03:05:06;;;;;;;14.57;3.92;;;;;;;;;;4939525;28;20387;-48
2024/03/25 03:07:59;;;;;;;12.95;3.92;;;;;;;;;;4941414;28;20418;-47
2024/03/25 03:10:45;;;;;;;13.07;3.72;;;;;;;;;;4938790;28;20051;-48
2024/03/25 03:13:39;;;;;;;10.98;3.80;;;;;;;;;;4940457;28;20067;-62
2024/03/25 03:16:25;;;;;;;9.40;4.00;;;;;;;;;;4938480;28;20067;-62
2024/03/25 03:19:18;;;;;;;7.30;3.72;;;;;;;;;;4941718;28;20065;-62
2024/03/25 03:22:11;;;;;;;8.68;3.53;;;;;;;;;;4921409;29;20465;-62
2024/03/25 03:25:04;;;;;;;9.23;3.78;;;;;;;;;;4938534;28;20055;-64
2024/03/25 03:27:57;;;;;;;12.55;3.72;;;;;;;;;;4921657;28;20059;-64
2024/03/25 03:30:50;;;;;;;10.07;4.25;;;;;;;;;;4922876;29;20059;-63
2024/03/25 03:33:43;;;;;;;6.45;3.80;;;;;;;;;;4923141;28;20050;-63
2024/03/25 03:36:36;;;;;;;10.88;4.00;;;;;;;;;;4935975;28;20067;-63
2024/03/25 03:39:22;;;;;;;9.88;4.25;;;;;;;;;;4926032;29;20058;-63
2024/03/25 03:42:15;;;;;;;9.10;3.90;;;;;;;;;;4923206;28;20055;-62
2024/03/25 03:45:02;;;;;;;7.35;3.47;;;;;;;;;;4922681;29;20518;-62
2024/03/25 03:47:54;;;;;;;8.48;3.63;;;;;;;;;;4923263;28;20514;-62
2024/03/25 03:50:40;;;;;;;14.35;4.50;;;;;;;;;;4939585;28;20074;-60
2024/03/25 03:53:33;;;;;;;8.40;4.07;;;;;;;;;;4927169;29;20051;-62
2024/03/25 03:56:20;;;;;;;8.32;4.00;;;;;;;;;;4921441;29;20067;-62
2024/03/25 03:59:13;;;;;;;9.05;4.28;;;;;;;;;;4921593;28;20071;-62
2024/03/25 04:02:06;;;;;;;12.15;4.25;;;;;;;;;;4922399;29;20063;-62
2024/03/25 04:04:59;;;;;;;11.35;4.35;;;;;;;;;;4924298;29;20436;-62
2024/03/25 04:07:45;;;;;;;13.75;4.32;;;;;;;;;;4939754;28;20501;-62
2024/03/25 04:10:39;;;;;;;14.15;4.25;;;;;;;;;;4937117;28;20062;-60
2024/03/25 04:13:25;;;;;;;8.68;4.03;;;;;;;;;;4923368;29;20059;-60
2024/03/25 04:16:17;;;;;;;19.15;4.32;;;;;;;;;;4922762;28;20063;-60
2024/03/25 04:19:10;;;;;;;8.13;3.45;;;;;;;;;;4921029;28;20462;-60
2024/03/25 04:22:10;;;;;;;9.45;4.07;;;;;;;;;;4952298;28;20055;-49
2024/03/25 04:24:56;;;;;;;16.08;4.72;;;;;;;;;;4944182;28;20054;-51
2024/03/25 04:27:49;;;;;;;12.55;4.22;;;;;;;;;;4937347;28;20059;-52
2024/03/25 04:30:42;;;;;;;11.68;4.18;;;;;;;;;;4940198;28;20063;-49
2024/03/25 04:33:35;;;;;;;15.80;4.75;;;;;;;;;;4932062;28;20993;-49
2024/03/25 04:36:21;;;;;;;14.95;5.10;;;;;;;;;;4934539;28;20513;-50
2024/03/25 04:39:14;;;;;;;14.68;4.15;;;;;;;;;;4940307;28;20436;-54
2024/03/25 04:42:07;;;;;;;12.75;4.25;;;;;;;;;;4939753;28;20065;-53
2024/03/25 04:44:54;;;;;;;12.90;4.43;;;;;;;;;;4938046;28;20098;-50
2024/03/25 04:47:46;;;;;;;15.63;4.28;;;;;;;;;;4940573;28;20114;-60
2024/03/25 04:50:33;;;;;;;14.10;4.43;;;;;;;;;;4940137;28;20117;-64
2024/03/25 04:53:25;;;;;;;11.40;4.10;;;;;;;;;;4953845;28;20058;-61
2024/03/25 04:56:11;;;;;;;11.73;4.40;;;;;;;;;;4950931;28;20583;-63
2024/03/25 04:59:04;;;;;;;17.48;4.97;;;;;;;;;;4938119;28;20061;-63
2024/03/25 05:01:57;;;;;;;10.20;4.15;;;;;;;;;;4939244;28;20059;-63
2024/03/25 05:04:52;;;;;;;17.67;4.57;;;;;;;;;;4937105;28;20089;-63
2024/03/25 05:07:43;;;;;;;14.80;4.82;;;;;;;;;;4942553;28;20072;-51
2024/03/25 05:10:36;;;;;;;13.48;4.40;;;;;;;;;;4944556;28;20062;-51
2024/03/25 05:13:22;;;;;;;12.13;4.10;;;;;;;;;;4939248;28;20058;-52
2024/03/25 05:16:15;;;;;;;16.30;5.78;;;;;;;;;;4937229;28;20070;-60
2024/03/25 05:19:01;;;;;;;16.02;5.05;;;;;;;;;;4941487;28;20070;-50
2024/03/25 05:22:01;;;;;;;12.82;4.35;;;;;;;;;;4935859;28;20055;-48
2024/03/25 05:24:47;;;;;;;15.82;4.97;;;;;;;;;;4944379;28;20509;-49
2024/03/25 05:27:40;;;;;;;12.45;4.75;;;;;;;;;;4933218;28;20070;-48
2024/03/25 05:30:27;;;;;;;15.57;5.22;;;;;;;;;;4936350;28;20468;-49
2024/03/25 05:33:19;;;;;;;10.82;4.90;;;;;;;;;;4940154;28;20509;-53
2024/03/25 05:36:06;;;;;;;12.55;5.15;;;;;;;;;;4933647;28;20067;-60
2024/03/25 05:38:59;;;;;;;12.20;3.92;;;;;;;;;;4943062;28;20055;-60
2024/03/25 05:41:45;;;;;;;9.60;4.63;;;;;;;;;;4937129;28;20106;-60
2024/03/25 05:44:37;;;;;;;11.07;3.97;;;;;;;;;;4936604;28;20063;-47
2024/03/25 05:47:30;;;;;;;13.30;4.55;;;;;;;;;;4930762;28;20113;-49
2024/03/25 05:50:17;;;;;;;12.00;4.13;;;;;;;;;;4931699;28;20055;-52
2024/03/25 05:53:09;;;;;;;13.60;4.05;;;;;;;;;;4939674;28;20070;-49
2024/03/25 05:55:56;;;;;;;11.02;3.85;;;;;;;;;;4937070;28;20486;-48
2024/03/25 05:58:49;;;;;;;12.82;3.92;;;;;;;;;;4933777;28;20046;-49
2024/03/25 06:01:37;;;;;;;10.65;3.88;;;;;;;;;;4945929;28;20048;-49
2024/03/25 06:04:28;;;;;;;10.15;4.28;;;;;;;;;;4938492;28;20054;-62
2024/03/25 06:07:21;;;;;;;15.73;3.92;;;;;;;;;;4957044;28;20059;-62
2024/03/25 06:10:08;;;;;;;12.77;4.60;;;;;;;;;;4940455;28;20067;-62
2024/03/25 06:13:00;;;;;;;9.75;4.00;;;;;;;;;;4940566;28;20464;-62
2024/03/25 06:15:47;;;;;;;12.90;4.40;;;;;;;;;;4940816;28;20586;-59
2024/03/25 06:18:42;;;;;;;8.45;4.32;;;;;;;;;;4938745;28;20137;-59
2024/03/25 06:21:32;;;;;;;11.18;4.90;;;;;;;;;;4949980;28;20058;-59
2024/03/25 06:24:24;;;;;;;9.38;3.22;;;;;;;;;;4938919;28;20062;-59
2024/03/25 06:27:11;;;;;;;11.18;4.03;;;;;;;;;;4941397;28;20064;-60
2024/03/25 06:35:44;;;;;;;11.70;4.53;;;;;;;;;;4937279;28;20521;-61
2024/03/25 06:38:30;;;;;;;12.50;4.88;;;;;;;;;;4939766;28;20529;-62
2024/03/25 06:41:22;;;;;;;9.25;4.00;;;;;;;;;;4942827;28;20417;-62
2024/03/25 06:44:09;;;;;;;11.15;3.95;;;;;;;;;;4939193;28;20058;-61
2024/03/25 06:47:02;;;;;;;9.02;4.30;;;;;;;;;;4941875;28;20063;-62
2024/03/25 06:49:47;;;;;;;10.40;4.72;;;;;;;;;;4937369;28;20066;-62
2024/03/25 06:52:41;;;;;;;11.85;4.70;;;;;;;;;;4940092;28;20055;-62
2024/03/25 06:55:28;;;;;;;8.88;4.05;;;;;;;;;;4939825;28;20565;-61
2024/03/25 06:58:20;;;;;;;8.80;4.00;;;;;;;;;;4943963;28;20055;-62
2024/03/25 07:01:07;;;;;;;12.32;4.70;;;;;;;;;;4942438;28;20693;-62
2024/03/25 07:04:07;;;;;;;9.38;4.43;;;;;;;;;;4954389;28;20587;-62
2024/03/25 07:06:59;;;;;;;8.05;2.97;;;;;;;;;;4935552;28;20425;-62
2024/03/25 07:09:53;;;;;;;11.50;4.03;;;;;;;;;;4941980;28;20066;-60
2024/03/25 07:12:39;;;;;;;12.48;4.53;;;;;;;;;;4940990;28;20051;-59
2024/03/25 07:15:32;;;;;;;6.50;3.53;;;;;;;;;;4943026;28;20059;-60
2024/03/25 07:18:18;;;;;;;6.03;3.22;;;;;;;;;;4943371;28;20642;-59
2024/03/25 07:21:17;;;;;;;7.40;2.72;;;;;;;;;;4946818;28;20059;-59
2024/03/25 07:24:03;;;;;;;7.03;3.15;;;;;;;;;;4947546;28;20070;-60
2024/03/25 07:26:56;;;;;;;7.32;3.17;;;;;;;;;;4941801;28;20055;-59
2024/03/25 07:29:42;;;;;;;4.25;2.90;;;;;;;;;;4944082;28;20671;-61
2024/03/25 07:32:35;;;;;;;9.15;3.28;;;;;;;;;;4955962;28;20075;-61
2024/03/25 07:35:21;;;;;;;4.15;2.95;;;;;;;;;;4944937;28;20461;-61
2024/03/25 07:38:14;;;;;;;5.60;3.22;;;;;;;;;;4944369;28;20062;-62
2024/03/25 07:41:07;;;;;;;4.30;2.80;;;;;;;;;;4944735;28;20121;-49
2024/03/25 07:43:59;;;;;;;4.35;2.80;;;;;;;;;;4944630;28;20433;-49
2024/03/25 07:46:45;;;;;;;7.97;2.50;;;;;;;;;;4940647;28;20432;-48
2024/03/25 07:49:39;;;;;;;7.93;2.80;;;;;;;;;;4947898;28;20526;-50
2024/03/25 07:52:31;;;;;;;4.38;2.20;;;;;;;;;;4958696;28;20054;-49
2024/03/25 07:55:18;;;;;;;3.40;2.70;;;;;;;;;;4943518;28;20075;-53
2024/03/25 07:58:32;;;;;;;5.82;2.90;;;;;;;;;;4958207;28;20516;-60
2024/03/25 08:01:19;;;;;;;4.45;3.03;;;;;;;;;;4945808;28;20552;-60
2024/03/25 08:04:11;;;;;;;3.22;2.42;;;;;;;;;;4943374;28;20070;-60
2024/03/25 08:06:57;;;;;;;5.30;2.85;;;;;;;;;;4940128;28;20048;-50
2024/03/25 08:09:51;;;;;;;4.43;2.63;;;;;;;;;;4945506;28;20085;-60
2024/03/25 08:12:37;;;;;;;4.25;2.67;;;;;;;;;;4937826;28;20058;-60
2024/03/25 08:15:30;;;;;;;5.15;2.90;;;;;;;;;;4940216;28;20471;-60
2024/03/25 08:18:17;;;;;;;5.15;2.67;;;;;;;;;;4944002;28;20098;-59
2024/03/25 08:21:23;;;;;;;6.72;2.63;;;;;;;;;;4939996;28;20058;-60
2024/03/25 08:24:16;;;;;;;4.63;2.67;;;;;;;;;;4945247;28;20066;-59
2024/03/25 08:27:09;;;;;;;4.38;2.88;;;;;;;;;;4944270;28;20050;-60
2024/03/25 08:29:55;;;;;;;4.60;2.75;;;;;;;;;;4957474;28;20697;-60
2024/03/25 08:32:48;;;;;;;5.18;2.60;;;;;;;;;;4943431;28;20464;-60
2024/03/25 08:35:35;;;;;;;6.10;2.88;;;;;;;;;;4937195;28;20055;-60
2024/03/25 08:38:28;;;;;;;2.85;2.50;;;;;;;;;;4941391;28;20065;-59
2024/03/25 08:41:15;;;;;;;4.75;2.72;;;;;;;;;;4938446;28;20059;-60
2024/03/25 08:44:06;;;;;;;3.95;2.78;;;;;;;;;;4938745;28;20071;-60
2024/03/25 08:46:59;;;;;;;3.45;2.38;;;;;;;;;;4939504;28;20062;-60
2024/03/25 08:49:52;;;;;;;3.58;2.55;;;;;;;;;;4943096;28;20062;-59
2024/03/25 08:52:52;;;;;;;3.30;2.17;;;;;;;;;;4943050;28;20074;-59
2024/03/25 08:55:46;;;;;;;5.65;2.40;;;;;;;;;;4959732;28;20066;-59
2024/03/25 08:58:32;;;;;;;4.07;2.35;;;;;;;;;;4941668;28;20050;-59
2024/03/25 09:01:26;;;;;;;5.80;2.35;;;;;;;;;;4943389;28;20070;-56
2024/03/25 09:04:12;;;;;;;4.45;2.92;;;;;;;;;;4938604;28;20055;-49
2024/03/25 09:07:04;;;;;;;3.08;1.90;;;;;;;;;;4943521;28;20059;-63
2024/03/25 09:12:42;;;;;;;4.43;2.45;;;;;;;;;;4957587;28;20059;-63
2024/03/25 09:15:29;;;;;;;2.90;1.98;;;;;;;;;;4941023;28;20055;-62
2024/03/25 09:18:21;;;;;;;2.88;2.17;;;;;;;;;;4957684;28;20059;-62
2024/03/25 09:21:14;;;;;;;2.55;1.80;;;;;;;;;;4940992;28;20062;-61
2024/03/25 09:24:07;;;;;;;3.47;2.00;;;;;;;;;;4946464;28;20063;-51
2024/03/25 09:26:59;;;;;;;2.75;1.83;;;;;;;;;;4954463;28;20062;-48
2024/03/25 09:29:53;;;;;;;3.35;2.30;;;;;;;;;;4936249;28;20457;-48
2024/03/25 09:32:46;;;;;;;2.40;1.80;;;;;;;;;;4938215;28;20726;-59
2024/03/25 09:35:32;;;;;;;2.67;1.80;;;;;;;;;;4935989;28;20066;-59
2024/03/25 09:38:25;;;;;;;4.40;2.17;;;;;;;;;;4941602;28;20063;-59
2024/03/25 09:41:18;;;;;;;3.10;2.00;;;;;;;;;;4942560;28;20062;-60
2024/03/25 09:44:06;;;;;;;2.08;1.40;;;;;;;;;;4943311;28;20297;-58
2024/03/25 09:46:58;;;;;;;1.92;1.60;;;;;;;;;;4942005;28;20082;-59
2024/03/25 09:49:46;;;;;;;2.88;1.98;;;;;;;;;;4941520;28;20505;-59
2024/03/25 09:52:38;;;;;;;1.70;1.30;;;;;;;;;;4942092;28;20073;-59
2024/03/25 09:55:24;;;;;;;2.50;1.85;;;;;;;;;;4940280;28;20054;-59
2024/03/25 09:58:18;;;;;;;1.75;1.15;;;;;;;;;;4940689;28;20055;-59
2024/03/25 10:01:05;;;;;;;2.08;1.80;;;;;;;;;;4938853;28;20508;-63
2024/03/25 10:03:58;;;;;;;1.38;1.25;;;;;;;;;;4939839;28;20059;-61
2024/03/25 10:06:43;;;;;;;3.00;1.67;;;;;;;;;;4938196;28;20058;-60
2024/03/25 10:09:36;;;;;;;3.13;2.00;;;;;;;;;;4943909;28;20055;-59
2024/03/25 10:12:22;;;;;;;2.38;2.15;;;;;;;;;;4940967;28;20055;-60
2024/03/25 10:15:16;;;;;;;2.58;1.60;;;;;;;;;;4937654;28;20102;-60
2024/03/25 10:18:12;;;;;;;2.75;1.45;;;;;;;;;;4938659;28;20074;-48
2024/03/25 10:21:11;;;;;;;2.42;1.58;;;;;;;;;;4937000;28;20055;-46
2024/03/25 10:24:11;;;;;;;1.67;1.52;;;;;;;;;;4935872;28;20071;-51
2024/03/25 10:26:59;;;;;;;1.75;1.50;;;;;;;;;;4941648;28;20077;-52
2024/03/25 10:29:57;;;;;;;2.03;1.42;;;;;;;;;;4939835;28;20469;-60
2024/03/25 10:32:40;;;;;;;2.40;1.48;;;;;;;;;;4937083;28;20081;-60
2024/03/25 10:35:37;;;;;;;4.07;1.60;;;;;;;;;;4936269;28;20327;-60
2024/03/25 10:38:24;;;;;;;1.90;1.65;;;;;;;;;;4941380;28;20394;-60
2024/03/25 10:41:18;;;;;;;1.90;1.30;;;;;;;;;;4940799;28;20959;-60
2024/03/25 10:44:07;;;;;;;2.17;1.27;;;;;;;;;;4940338;28;20571;-60
2024/03/25 10:47:01;;;;;;;3.15;1.55;;;;;;;;;;4944292;28;20075;-60
2024/03/25 10:49:52;;;;;;;3.58;1.50;;;;;;;;;;4942912;28;20051;-60
2024/03/25 10:52:46;;;;;;;1.27;1.15;;;;;;;;;;4948092;28;20074;-60
2024/03/25 10:55:33;;;;;;;3.17;1.40;;;;;;;;;;4943799;28;20050;-60
2024/03/25 10:58:26;;;;;;;1.40;0.80;;;;;;;;;;4941871;28;20422;-60
2024/03/25 11:01:12;;;;;;;0.70;0.70;;;;;;;;;;4944065;28;20063;-62
2024/03/25 11:04:05;;;;;;;1.30;1.05;;;;;;;;;;4957316;28;20063;-62
2024/03/25 11:07:08;;;;;;;2.30;1.17;;;;;;;;;;4946610;28;20078;-63
2024/03/25 11:10:04;;;;;;;1.17;1.08;;;;;;;;;;4939622;28;20054;-62
2024/03/25 11:12:55;;;;;;;1.05;0.95;;;;;;;;;;4946191;28;20059;-62
2024/03/25 11:15:43;;;;;;;1.63;1.10;;;;;;;;;;4946326;28;20557;-60
2024/03/25 11:18:37;;;;;;;1.40;0.85;;;;;;;;;;4944406;28;20086;-60
2024/03/25 11:21:32;;;;;;;1.27;1.02;;;;;;;;;;4940555;28;20070;-60
2024/03/25 11:24:32;;;;;;;1.20;1.10;;;;;;;;;;4944395;28;20071;-60
2024/03/25 11:27:22;;;;;;;1.10;0.98;;;;;;;;;;4940372;28;20058;-50
2024/03/25 11:30:15;;;;;;;1.02;0.95;;;;;;;;;;4946984;28;20063;-49
2024/03/25 11:33:04;;;;;;;1.40;1.25;;;;;;;;;;4942242;28;20062;-50
2024/03/25 11:35:55;;;;;;;0.80;0.80;;;;;;;;;;4954452;28;20058;-48
2024/03/25 11:38:44;;;;;;;1.98;1.10;;;;;;;;;;4939535;28;20666;-46
2024/03/25 11:41:35;;;;;;;2.13;1.20;;;;;;;;;;4940866;28;20085;-52
2024/03/25 11:44:22;;;;;;;1.20;1.10;;;;;;;;;;4946638;28;20074;-59
2024/03/25 11:47:13;;;;;;;1.35;1.25;;;;;;;;;;4956823;28;20067;-60
2024/03/25 11:50:00;;;;;;;2.17;1.35;;;;;;;;;;4945019;28;20054;-59
2024/03/25 11:52:53;;;;;;;1.83;1.20;;;;;;;;;;4943729;28;20062;-59
2024/03/25 11:55:39;;;;;;;1.25;0.95;;;;;;;;;;4936607;28;20047;-64
2024/03/25 11:58:32;;;;;;;0.98;0.95;;;;;;;;;;4942694;28;20512;-47
2024/03/25 12:01:18;;;;;;;2.22;0.98;;;;;;;;;;4941350;28;20066;-49
2024/03/25 12:04:23;;;;;;;1.67;1.08;;;;;;;;;;4938132;28;20125;-51
2024/03/25 12:07:07;;;;;;;1.85;1.25;;;;;;;;;;4944513;28;20460;-52
2024/03/25 12:12:45;;;;;;;1.40;1.17;;;;;;;;;;4945444;28;20074;-53
2024/03/25 12:15:37;;;;;;;1.30;1.20;;;;;;;;;;4941021;28;20079;-47
2024/03/25 12:18:27;;;;;;;1.20;0.88;;;;;;;;;;4943095;28;20086;-51
2024/03/25 12:21:26;;;;;;;1.83;1.17;;;;;;;;;;4940943;28;20101;-49
2024/03/25 12:24:19;;;;;;;1.73;1.08;;;;;;;;;;4943003;28;20058;-64
2024/03/25 12:27:11;;;;;;;2.45;1.20;;;;;;;;;;4939126;28;20062;-60
2024/03/25 12:30:02;;;;;;;0.77;0.68;;;;;;;;;;4940936;28;20125;-60
2024/03/25 12:32:56;;;;;;;1.33;0.82;;;;;;;;;;4942669;28;20062;-60
2024/03/25 12:35:41;;;;;;;0.80;0.80;;;;;;;;;;4941836;28;20051;-60
2024/03/25 12:38:34;;;;;;;1.00;0.80;;;;;;;;;;4938876;28;20422;-60
2024/03/25 12:41:22;;;;;;;0.70;0.60;;;;;;;;;;4959011;28;20461;-51
2024/03/25 12:44:15;;;;;;;1.35;1.00;;;;;;;;;;4940467;28;20425;-51
2024/03/25 12:47:01;;;;;;;1.45;0.77;;;;;;;;;;4944792;28;21546;-48
2024/03/25 12:49:55;;;;;;;1.08;0.90;;;;;;;;;;4940555;28;20063;-49
2024/03/25 12:52:41;;;;;;;1.27;0.98;;;;;;;;;;4941096;28;20077;-60
2024/03/25 12:55:34;;;;;;;1.02;0.98;;;;;;;;;;4941497;28;20436;-61
2024/03/25 12:58:28;;;;;;;2.92;0.90;;;;;;;;;;4943046;28;20063;-61
2024/03/25 13:01:15;;;;;;;1.20;1.00;;;;;;;;;;4945656;28;20264;-61
2024/03/25 13:04:07;;;;;;;1.38;1.13;;;;;;;;;;4940598;28;20440;-61
2024/03/25 13:06:54;;;;;;;1.35;1.17;;;;;;;;;;4941275;28;20059;-61
2024/03/25 13:09:47;;;;;;;1.27;1.10;;;;;;;;;;4941882;28;20155;-60
2024/03/25 13:12:33;;;;;;;1.33;1.15;;;;;;;;;;4939376;28;20054;-60
2024/03/25 13:15:25;;;;;;;3.70;1.17;;;;;;;;;;4941176;28;20055;-61
2024/03/25 13:18:18;;;;;;;1.35;1.05;;;;;;;;;;4939582;28;20063;-60
2024/03/25 13:21:11;;;;;;;2.88;1.30;;;;;;;;;;4937500;28;20055;-64
2024/03/25 13:24:05;;;;;;;1.73;1.20;;;;;;;;;;4954996;28;20439;-62
2024/03/25 13:26:51;;;;;;;2.25;1.30;;;;;;;;;;4943828;28;20051;-62
2024/03/25 13:29:44;;;;;;;2.08;1.30;;;;;;;;;;4942573;28;20058;-62
2024/03/25 13:32:30;;;;;;;2.15;1.38;;;;;;;;;;4946059;28;20438;-62
2024/03/25 13:35:22;;;;;;;2.38;1.17;;;;;;;;;;4942265;28;20054;-62
2024/03/25 13:38:09;;;;;;;2.42;1.33;;;;;;;;;;4943595;28;20436;-60
2024/03/25 13:41:02;;;;;;;3.10;1.70;;;;;;;;;;4942386;28;20055;-61
2024/03/25 13:43:54;;;;;;;1.77;1.20;;;;;;;;;;4942816;28;20514;-61
2024/03/25 13:46:48;;;;;;;2.10;1.40;;;;;;;;;;4941401;28;20938;-60
2024/03/25 13:49:37;;;;;;;4.03;1.77;;;;;;;;;;4938034;28;20513;-61
2024/03/25 13:52:29;;;;;;;1.63;1.40;;;;;;;;;;4954226;28;20583;-52
2024/03/25 13:55:22;;;;;;;1.65;1.38;;;;;;;;;;4945855;28;20078;-51
2024/03/25 13:58:15;;;;;;;2.08;1.17;;;;;;;;;;4938175;28;20492;-51
2024/03/25 14:01:09;;;;;;;2.17;1.42;;;;;;;;;;4943602;28;20121;-52
2024/03/25 14:03:55;;;;;;;1.85;1.33;;;;;;;;;;4943000;28;20063;-51
2024/03/25 14:06:49;;;;;;;2.85;1.50;;;;;;;;;;4944911;28;20094;-61
2024/03/25 14:09:34;;;;;;;2.92;1.70;;;;;;;;;;4937518;28;20488;-62
2024/03/25 14:12:26;;;;;;;4.45;1.80;;;;;;;;;;4937332;28;20067;-62
2024/03/25 14:15:19;;;;;;;3.80;1.58;;;;;;;;;;4940186;28;20058;-61
2024/03/25 14:18:07;;;;;;;3.55;1.52;;;;;;;;;;4941568;28;20590;-61
2024/03/25 14:21:11;;;;;;;6.18;2.17;;;;;;;;;;4938976;28;20070;-60
2024/03/25 14:24:08;;;;;;;3.03;1.55;;;;;;;;;;4940110;28;20054;-60
2024/03/25 14:27:00;;;;;;;3.20;1.80;;;;;;;;;;4939488;28;20087;-60
2024/03/25 14:29:47;;;;;;;5.63;1.98;;;;;;;;;;4941460;28;20595;-60
2024/03/25 14:32:39;;;;;;;3.53;1.90;;;;;;;;;;4939495;28;20061;-60
2024/03/25 14:35:25;;;;;;;3.40;1.90;;;;;;;;;;4941186;28;20517;-63
2024/03/25 14:38:18;;;;;;;3.53;1.92;;;;;;;;;;4940759;28;20637;-64
2024/03/25 14:41:05;;;;;;;6.03;2.22;;;;;;;;;;4939196;28;20527;-64
2024/03/25 14:43:57;;;;;;;4.05;2.10;;;;;;;;;;4951274;28;20726;-64
2024/03/25 14:46:50;;;;;;;7.53;2.95;;;;;;;;;;4939292;28;20552;-60
2024/03/25 14:49:38;;;;;;;9.50;2.30;;;;;;;;;;4940441;28;20402;-51
2024/03/25 14:52:29;;;;;;;5.10;2.30;;;;;;;;;;4944772;28;20062;-50
2024/03/25 14:55:16;;;;;;;6.50;2.47;;;;;;;;;;4938114;28;20534;-47
2024/03/25 14:58:09;;;;;;;7.30;2.53;;;;;;;;;;4934322;28;20105;-51
2024/03/25 15:00:55;;;;;;;8.75;2.60;;;;;;;;;;4939793;28;20067;-49
2024/03/25 15:03:47;;;;;;;6.80;2.67;;;;;;;;;;4942010;28;20052;-62
2024/03/25 15:06:34;;;;;;;4.00;2.40;;;;;;;;;;4942601;28;20062;-61
2024/03/25 15:09:26;;;;;;;5.55;2.40;;;;;;;;;;4936041;28;20066;-62
2024/03/25 15:12:13;;;;;;;6.57;2.60;;;;;;;;;;4940155;28;20059;-61
2024/03/25 15:14:45;;;;;;;7.75;2.80;;;;;;;;;;4942670;28;20630;-52
2024/03/25 15:17:12;;;;;;;6.90;2.60;;;;;;;;;;4950550;28;20509;-65
2024/03/25 15:19:38;;;;;;;7.05;2.60;;;;;;;;;;4942096;28;20058;-65
2024/03/25 15:22:17;;;;;;;9.23;2.80;;;;;;;;;;4943284;28;20106;-66
2024/03/25 15:24:44;;;;;;;5.55;2.47;;;;;;;;;;4937608;28;20050;-66
2024/03/25 15:27:10;;;;;;;8.20;2.80;;;;;;;;;;4939080;28;20508;-65
2024/03/25 15:29:42;;;;;;;6.60;2.72;;;;;;;;;;4936646;28;20828;-65
2024/03/25 15:32:09;;;;;;;7.20;3.28;;;;;;;;;;4941073;28;20051;-62
2024/03/25 15:34:35;;;;;;;4.20;2.50;;;;;;;;;;4939683;28;20071;-61
2024/03/25 15:37:09;;;;;;;3.03;2.00;;;;;;;;;;4938988;28;20069;-61
2024/03/25 15:39:55;;;;;;;10.30;2.60;;;;;;;;;;4939245;28;20052;-61
2024/03/25 15:42:46;;;;;;;6.45;2.45;;;;;;;;;;4942008;28;20483;-61
2024/03/25 15:45:33;;;;;;;4.25;2.33;;;;;;;;;;4945960;28;20659;-61
2024/03/25 15:48:26;;;;;;;3.95;2.53;;;;;;;;;;4944473;28;20482;-62
2024/03/25 15:51:12;;;;;;;4.63;2.20;;;;;;;;;;4939535;28;20059;-61
2024/03/25 15:54:05;;;;;;;4.30;2.33;;;;;;;;;;4939793;28;20062;-62
2024/03/25 15:56:52;;;;;;;5.72;2.70;;;;;;;;;;4940240;28;20058;-62
2024/03/25 15:59:44;;;;;;;5.68;2.40;;;;;;;;;;4946321;28;20935;-52
2024/03/25 16:02:38;;;;;;;5.72;2.60;;;;;;;;;;4945957;28;20054;-62
2024/03/25 16:05:24;;;;;;;8.15;3.13;;;;;;;;;;4941215;28;20221;-62
2024/03/25 16:08:17;;;;;;;5.40;2.35;;;;;;;;;;4943129;28;20531;-62
2024/03/25 16:11:03;;;;;;;8.95;2.88;;;;;;;;;;4941694;28;20508;-62
2024/03/25 16:13:55;;;;;;;5.30;2.70;;;;;;;;;;4938094;28;20055;-62
2024/03/25 16:16:42;;;;;;;5.68;2.40;;;;;;;;;;4941080;28;20437;-62
2024/03/25 16:19:34;;;;;;;6.43;2.83;;;;;;;;;;4944038;28;20117;-61
2024/03/25 16:22:27;;;;;;;6.65;2.58;;;;;;;;;;4942882;28;20059;-61
2024/03/25 16:25:23;;;;;;;7.25;3.05;;;;;;;;;;4941896;28;20054;-61
2024/03/25 16:28:13;;;;;;;7.18;2.75;;;;;;;;;;4945549;28;20055;-49
2024/03/25 16:31:06;;;;;;;7.10;2.70;;;;;;;;;;4938970;28;20069;-63
2024/03/25 16:33:53;;;;;;;7.40;2.60;;;;;;;;;;4938114;28;20054;-57
2024/03/25 16:36:46;;;;;;;6.15;2.40;;;;;;;;;;4941713;28;20074;-52
2024/03/25 16:39:32;;;;;;;7.28;3.10;;;;;;;;;;4941167;28;20066;-54
2024/03/25 16:42:25;;;;;;;7.47;2.80;;;;;;;;;;4940495;28;20063;-52
2024/03/25 16:45:11;;;;;;;3.70;2.35;;;;;;;;;;4939049;28;20058;-48
